createdAt,value
2022-12-18T00:01:21.639Z,4.70
2022-12-18T00:03:51.815Z,4.60
2022-12-18T00:06:19.787Z,4.67
2022-12-18T00:08:47.557Z,4.63
2022-12-18T00:11:18.389Z,4.80
2022-12-18T00:13:45.940Z,4.30
2022-12-18T00:16:15.512Z,4.33
2022-12-18T00:18:43.523Z,4.27
2022-12-18T00:21:14.512Z,4.43
2022-12-18T00:23:44.793Z,4.97
2022-12-18T00:26:14.268Z,5.27
2022-12-18T00:28:41.779Z,4.90
2022-12-18T00:31:12.922Z,5.03
2022-12-18T00:33:40.839Z,4.43
2022-12-18T00:36:11.824Z,4.77
2022-12-18T00:38:40.840Z,4.60
2022-12-18T00:41:09.476Z,4.50
2022-12-18T00:43:36.343Z,4.53
2022-12-18T00:46:04.394Z,4.57
2022-12-18T00:48:32.781Z,4.97
2022-12-18T00:51:00.297Z,4.53
2022-12-18T00:53:27.763Z,4.20
2022-12-18T00:55:56.549Z,3.90
2022-12-18T00:58:24.073Z,4.20
2022-12-18T01:00:51.728Z,4.27
2022-12-18T01:03:19.298Z,4.53
2022-12-18T01:05:46.772Z,4.03
2022-12-18T01:08:14.295Z,4.20
2022-12-18T01:10:42.254Z,3.40
2022-12-18T01:13:11.076Z,3.83
2022-12-18T01:15:38.563Z,4.03
2022-12-18T01:18:06.075Z,3.67
2022-12-18T01:20:33.578Z,3.80
2022-12-18T01:23:01.053Z,3.90
2022-12-18T01:25:28.532Z,4.00
2022-12-18T01:27:55.979Z,3.80
2022-12-18T01:30:24.787Z,4.20
2022-12-18T01:32:52.246Z,3.87
2022-12-18T01:35:19.745Z,3.90
2022-12-18T01:37:47.198Z,3.80
2022-12-18T01:40:14.830Z,4.17
2022-12-18T01:42:42.324Z,4.00
2022-12-18T01:45:28.121Z,3.93
2022-12-18T01:47:57.900Z,3.47
2022-12-18T01:50:29.022Z,3.80
2022-12-18T01:53:01.950Z,3.40
2022-12-18T01:55:32.900Z,3.40
2022-12-18T01:58:02.286Z,3.23
2022-12-18T02:00:31.501Z,3.93
2022-12-18T02:02:59.145Z,3.27
2022-12-18T02:05:38.867Z,3.17
2022-12-18T02:08:12.536Z,3.17
2022-12-18T02:10:48.444Z,3.70
2022-12-18T02:13:22.422Z,3.23
2022-12-18T02:16:00.549Z,3.23
2022-12-18T02:18:34.397Z,3.20
2022-12-18T02:21:09.858Z,3.00
2022-12-18T02:23:50.852Z,3.37
2022-12-18T02:26:22.409Z,3.27
2022-12-18T02:28:55.106Z,3.07
2022-12-18T02:31:26.445Z,2.80
2022-12-18T02:33:58.251Z,3.17
2022-12-18T02:36:29.215Z,3.30
2022-12-18T02:38:58.382Z,3.23
2022-12-18T02:41:27.910Z,3.63
2022-12-18T02:43:57.908Z,3.27
2022-12-18T02:46:31.223Z,3.40
2022-12-18T02:49:23.543Z,3.10
2022-12-18T02:51:55.394Z,2.57
2022-12-18T02:54:38.221Z,3.23
2022-12-18T02:57:15.997Z,3.00
2022-12-18T02:59:51.274Z,3.60
2022-12-18T03:02:25.435Z,3.10
2022-12-18T03:05:02.026Z,3.40
2022-12-18T03:07:37.202Z,3.23
2022-12-18T03:10:06.937Z,3.37
2022-12-18T03:12:39.591Z,3.33
2022-12-18T03:15:17.399Z,3.80
2022-12-18T03:17:51.584Z,3.33
2022-12-18T03:20:22.463Z,3.27
2022-12-18T03:22:55.384Z,3.43
2022-12-18T03:25:24.492Z,3.47
2022-12-18T03:27:58.884Z,3.63
2022-12-18T03:30:29.340Z,3.47
2022-12-18T03:33:04.693Z,3.73
2022-12-18T03:35:35.745Z,3.23
2022-12-18T03:38:03.410Z,3.90
2022-12-18T03:40:40.700Z,3.30
2022-12-18T03:43:18.190Z,3.17
2022-12-18T03:45:54.682Z,3.40
2022-12-18T03:48:30.101Z,3.43
2022-12-18T03:51:01.227Z,3.73
2022-12-18T03:53:37.432Z,3.43
2022-12-18T03:56:06.689Z,3.17
2022-12-18T03:58:39.202Z,3.30
2022-12-18T04:01:10.584Z,4.13
2022-12-18T04:03:40.020Z,3.93
2022-12-18T04:06:09.174Z,4.03
2022-12-18T04:08:37.650Z,4.27
2022-12-18T04:11:05.482Z,4.13
2022-12-18T04:13:37.856Z,4.03
2022-12-18T04:16:06.495Z,3.60
2022-12-18T04:18:34.081Z,4.10
2022-12-18T04:21:01.604Z,3.33
2022-12-18T04:23:29.320Z,4.07
2022-12-18T04:25:56.806Z,3.73
2022-12-18T04:28:24.270Z,4.07
2022-12-18T04:30:53.169Z,4.33
2022-12-18T04:33:20.942Z,3.73
2022-12-18T04:35:48.390Z,4.17
2022-12-18T04:38:15.892Z,4.07
2022-12-18T04:40:43.430Z,4.27
2022-12-18T04:43:11.300Z,4.10
2022-12-18T04:45:39.350Z,4.40
2022-12-18T04:48:09.560Z,4.47
2022-12-18T04:50:37.905Z,4.00
2022-12-18T04:53:05.422Z,4.27
2022-12-18T04:55:32.897Z,4.20
2022-12-18T04:58:00.340Z,4.50
2022-12-18T05:00:27.966Z,4.10
2022-12-18T05:02:55.842Z,3.57
2022-12-18T05:05:25.192Z,3.67
2022-12-18T05:07:52.628Z,3.50
2022-12-18T05:10:20.138Z,4.10
2022-12-18T05:13:01.261Z,3.80
2022-12-18T05:15:30.500Z,3.77
2022-12-18T05:17:58.166Z,3.63
2022-12-18T05:20:28.138Z,3.60
2022-12-18T05:22:56.426Z,3.50
2022-12-18T05:25:24.609Z,3.13
2022-12-18T05:27:52.271Z,3.67
2022-12-18T05:30:19.827Z,3.87
2022-12-18T05:32:47.304Z,2.90
2022-12-18T05:35:14.770Z,3.60
2022-12-18T05:37:43.709Z,3.17
2022-12-18T05:40:12.802Z,3.17
2022-12-18T05:42:40.288Z,3.37
2022-12-18T05:45:08.640Z,3.23
2022-12-18T05:47:36.140Z,3.40
2022-12-18T05:50:03.837Z,3.60
2022-12-18T05:52:32.435Z,3.63
2022-12-18T05:55:01.229Z,2.97
2022-12-18T05:57:28.686Z,3.10
2022-12-18T05:59:56.177Z,3.23
2022-12-18T06:02:23.736Z,3.13
2022-12-18T06:04:51.287Z,3.50
2022-12-18T06:07:18.762Z,3.33
2022-12-18T06:09:46.460Z,3.27
2022-12-18T06:12:15.257Z,3.90
2022-12-18T06:14:42.715Z,3.63
2022-12-18T06:17:10.184Z,3.63
2022-12-18T06:19:37.752Z,3.60
2022-12-18T06:22:05.427Z,3.47
2022-12-18T06:24:34.024Z,4.30
2022-12-18T06:27:01.499Z,3.90
2022-12-18T06:29:30.321Z,4.10
2022-12-18T06:31:57.849Z,3.60
2022-12-18T06:34:25.335Z,3.43
2022-12-18T06:36:52.789Z,3.53
2022-12-18T06:39:20.443Z,3.77
2022-12-18T06:41:47.879Z,3.43
2022-12-18T06:44:15.356Z,3.67
2022-12-18T06:46:44.143Z,3.47
2022-12-18T06:49:11.706Z,3.90
2022-12-18T06:51:39.169Z,3.97
2022-12-18T06:54:06.778Z,4.23
2022-12-18T06:56:34.258Z,3.97
2022-12-18T06:59:01.732Z,4.10
2022-12-18T07:01:29.301Z,3.97
2022-12-18T07:03:59.099Z,4.17
2022-12-18T07:06:28.055Z,4.30
2022-12-18T07:08:56.482Z,4.03
2022-12-18T07:11:24.071Z,4.03
2022-12-18T07:13:51.628Z,4.43
2022-12-18T07:16:25.192Z,4.10
2022-12-18T07:18:53.321Z,4.43
2022-12-18T07:21:22.935Z,4.50
2022-12-18T07:23:50.404Z,4.20
2022-12-18T07:26:19.715Z,4.13
2022-12-18T07:28:47.533Z,3.67
2022-12-18T07:31:17.573Z,4.53
2022-12-18T07:33:47.524Z,4.60
2022-12-18T07:36:15.668Z,4.27
2022-12-18T07:38:44.802Z,3.93
2022-12-18T07:41:14.027Z,4.43
2022-12-18T07:43:43.151Z,3.80
2022-12-18T07:46:13.499Z,4.07
2022-12-18T07:48:41.295Z,4.67
2022-12-18T07:51:09.001Z,4.47
2022-12-18T07:53:38.540Z,4.77
2022-12-18T07:58:57.610Z,4.60
2022-12-18T08:01:25.292Z,5.83
2022-12-18T08:03:52.947Z,5.77
2022-12-18T08:06:22.609Z,6.10
2022-12-18T08:08:53.029Z,6.27
2022-12-18T08:11:21.865Z,7.80
2022-12-18T08:13:49.568Z,8.33
2022-12-18T08:16:17.802Z,8.67
2022-12-18T08:18:45.361Z,8.90
2022-12-18T08:21:14.342Z,9.67
2022-12-18T08:23:43.381Z,8.90
2022-12-18T08:26:11.922Z,11.27
2022-12-18T08:28:41.570Z,14.18
2022-12-18T08:31:09.942Z,12.57
2022-12-18T08:33:40.117Z,16.23
2022-12-18T08:36:10.888Z,17.73
2022-12-18T08:38:38.804Z,12.53
2022-12-18T08:41:07.869Z,10.63
2022-12-18T08:43:53.103Z,10.60
2022-12-18T08:46:23.511Z,9.57
2022-12-18T08:48:53.043Z,9.50
2022-12-18T08:51:21.326Z,9.37
2022-12-18T08:53:49.239Z,9.77
2022-12-18T08:56:17.602Z,9.27
2022-12-18T08:58:45.234Z,9.27
2022-12-18T09:01:14.674Z,10.20
2022-12-18T09:03:44.152Z,10.60
2022-12-18T09:06:15.506Z,10.30
2022-12-18T09:08:43.468Z,10.83
2022-12-18T09:11:15.410Z,9.73
2022-12-18T09:13:43.076Z,10.57
2022-12-18T09:16:10.936Z,10.30
2022-12-18T09:18:38.924Z,10.53
2022-12-18T09:21:12.308Z,9.83
2022-12-18T09:23:39.832Z,9.23
2022-12-18T09:26:07.359Z,9.37
2022-12-18T09:28:35.349Z,9.40
2022-12-18T09:31:08.353Z,9.13
2022-12-18T09:33:36.582Z,8.73
2022-12-18T09:36:05.658Z,8.63
2022-12-18T09:38:35.710Z,8.83
2022-12-18T09:41:08.302Z,8.90
2022-12-18T09:43:43.226Z,8.80
2022-12-18T09:46:18.188Z,9.20
2022-12-18T09:48:49.811Z,8.93
2022-12-18T09:51:21.581Z,9.20
2022-12-18T09:53:57.508Z,9.13
2022-12-18T09:56:28.117Z,9.47
2022-12-18T09:59:00.600Z,10.10
2022-12-18T10:01:38.865Z,9.20
2022-12-18T10:04:11.322Z,9.40
2022-12-18T10:06:44.911Z,9.20
2022-12-18T10:09:23.262Z,9.60
2022-12-18T10:11:59.009Z,8.67
2022-12-18T10:14:36.020Z,9.00
2022-12-18T10:17:16.586Z,10.57
2022-12-18T10:19:51.168Z,10.27
2022-12-18T10:22:28.367Z,10.10
2022-12-18T10:25:05.530Z,10.53
2022-12-18T10:27:34.517Z,10.47
2022-12-18T10:30:06.026Z,11.43
2022-12-18T10:32:34.878Z,11.83
2022-12-18T10:35:02.389Z,10.80
2022-12-18T10:37:31.520Z,11.40
2022-12-18T10:40:19.925Z,11.67
2022-12-18T10:43:05.437Z,12.37
2022-12-18T10:45:33.123Z,11.93
2022-12-18T10:48:00.815Z,13.43
2022-12-18T10:51:01.687Z,14.27
2022-12-18T10:53:23.438Z,15.13
2022-12-18T10:55:55.426Z,14.30
2022-12-18T10:58:26.912Z,14.80
2022-12-18T11:01:10.685Z,15.43
2022-12-18T11:03:40.593Z,16.83
2022-12-18T11:06:10.988Z,15.90
2022-12-18T11:08:39.182Z,16.63
2022-12-18T11:11:21.152Z,16.20
2022-12-18T11:13:58.632Z,16.00
2022-12-18T11:16:26.434Z,15.83
2022-12-18T11:18:54.246Z,16.57
2022-12-18T11:21:22.028Z,16.47
2022-12-18T11:23:52.466Z,15.37
2022-12-18T11:26:22.748Z,16.57
2022-12-18T11:28:53.662Z,16.73
2022-12-18T11:31:28.420Z,16.10
2022-12-18T11:36:51.105Z,17.10
2022-12-18T11:39:24.423Z,17.43
2022-12-18T11:42:13.405Z,18.03
2022-12-18T11:44:47.088Z,18.13
2022-12-18T11:47:23.660Z,16.70
2022-12-18T11:49:51.726Z,18.30
2022-12-18T11:52:23.545Z,17.00
2022-12-18T11:54:53.710Z,17.53
2022-12-18T11:57:35.799Z,16.77
2022-12-18T12:00:12.119Z,18.13
2022-12-18T12:02:51.780Z,18.30
2022-12-18T12:05:40.143Z,16.87
2022-12-18T12:08:16.938Z,17.83
2022-12-18T12:10:56.310Z,17.27
2022-12-18T12:13:41.566Z,17.07
2022-12-18T12:16:18.056Z,17.87
2022-12-18T12:19:03.740Z,15.63
2022-12-18T12:21:40.730Z,17.13
2022-12-18T12:24:24.700Z,18.87
2022-12-18T12:26:59.712Z,18.87
2022-12-18T12:29:44.765Z,18.07
2022-12-18T12:32:24.806Z,17.23
2022-12-18T12:35:09.664Z,17.73
2022-12-18T12:37:46.110Z,18.00
2022-12-18T12:40:50.266Z,17.47
2022-12-18T12:43:23.034Z,17.40
2022-12-18T12:45:56.703Z,17.77
2022-12-18T12:48:34.977Z,18.57
2022-12-18T12:51:05.532Z,18.13
2022-12-18T12:53:38.813Z,18.60
2022-12-18T12:56:10.385Z,18.53
2022-12-18T12:58:47.065Z,17.70
2022-12-18T13:01:25.041Z,17.97
2022-12-18T13:04:04.151Z,17.53
2022-12-18T13:06:44.551Z,18.20
2022-12-18T13:09:12.418Z,17.37
2022-12-18T13:12:00.618Z,16.97
2022-12-18T13:14:32.009Z,17.60
2022-12-18T13:17:28.380Z,17.67
2022-12-18T13:20:07.809Z,18.40
2022-12-18T13:22:38.206Z,17.83
2022-12-18T13:25:34.003Z,17.30
2022-12-18T13:28:05.393Z,17.50
2022-12-18T13:30:57.118Z,18.00
2022-12-18T13:36:38.634Z,16.33
2022-12-18T13:39:36.752Z,16.07
2022-12-18T13:42:59.975Z,15.70
2022-12-18T13:45:47.637Z,16.70
2022-12-18T13:48:24.507Z,17.10
2022-12-18T13:51:00.404Z,17.77
2022-12-18T13:53:31.765Z,17.50
2022-12-18T13:56:00.054Z,16.67
2022-12-18T13:58:27.951Z,16.50
2022-12-18T14:00:55.741Z,16.80
2022-12-18T14:03:27.063Z,16.90
2022-12-18T14:06:00.698Z,16.13
2022-12-18T14:08:35.226Z,16.77
2022-12-18T14:11:05.064Z,16.53
2022-12-18T14:13:35.616Z,15.77
2022-12-18T14:16:05.009Z,17.37
2022-12-18T14:18:41.342Z,14.83
2022-12-18T14:21:21.398Z,14.93
2022-12-18T14:23:48.891Z,14.57
2022-12-18T14:26:26.285Z,16.23
2022-12-18T14:28:54.782Z,15.27
2022-12-18T14:31:23.427Z,16.10
2022-12-18T14:33:51.115Z,15.00
2022-12-18T14:36:21.844Z,15.80
2022-12-18T14:38:54.639Z,16.83
2022-12-18T14:41:23.353Z,16.30
2022-12-18T14:43:52.550Z,14.37
2022-12-18T14:46:36.965Z,14.70
2022-12-18T14:49:07.605Z,15.27
2022-12-18T14:51:37.996Z,14.10
2022-12-18T14:54:09.107Z,14.87
2022-12-18T14:56:38.164Z,15.53
2022-12-18T14:59:07.590Z,15.67
2022-12-18T15:01:38.245Z,15.33
2022-12-18T15:04:07.641Z,15.17
2022-12-18T15:06:38.859Z,15.10
2022-12-18T15:09:22.513Z,15.27
2022-12-18T15:11:51.305Z,14.67
2022-12-18T15:14:32.357Z,14.63
2022-12-18T15:17:01.492Z,15.20
2022-12-18T15:19:37.606Z,15.83
2022-12-18T15:22:06.969Z,14.80
2022-12-18T15:24:34.922Z,15.77
2022-12-18T15:27:02.860Z,14.73
2022-12-18T15:29:30.371Z,14.37
2022-12-18T15:32:03.530Z,14.80
2022-12-18T15:34:32.010Z,14.77
2022-12-18T15:36:59.535Z,15.37
2022-12-18T15:39:28.391Z,15.57
2022-12-18T15:42:13.892Z,15.83
2022-12-18T15:44:41.431Z,13.27
2022-12-18T15:47:13.425Z,13.53
2022-12-18T15:49:41.019Z,14.87
2022-12-18T15:52:26.644Z,14.57
2022-12-18T15:55:13.185Z,13.80
2022-12-18T15:57:40.640Z,12.80
2022-12-18T16:00:13.756Z,13.13
2022-12-18T16:02:41.443Z,13.67
2022-12-18T16:05:17.835Z,12.47
2022-12-18T16:07:45.453Z,14.27
2022-12-18T16:10:14.388Z,14.83
2022-12-18T16:12:43.531Z,14.43
2022-12-18T16:15:14.366Z,12.43
2022-12-18T16:17:42.027Z,14.43
2022-12-18T16:20:15.832Z,14.47
2022-12-18T16:22:45.484Z,14.77
2022-12-18T16:25:23.751Z,13.97
2022-12-18T16:27:52.273Z,14.77
2022-12-18T16:30:22.320Z,14.13
2022-12-18T16:32:49.850Z,14.47
2022-12-18T16:35:18.230Z,14.17
2022-12-18T16:37:45.768Z,12.67
2022-12-18T16:40:17.715Z,14.40
2022-12-18T16:42:47.446Z,14.00
2022-12-18T16:45:17.464Z,14.57
2022-12-18T16:47:45.331Z,14.33
2022-12-18T16:50:13.383Z,14.70
2022-12-18T16:52:41.492Z,14.40
2022-12-18T16:55:09.960Z,13.47
2022-12-18T16:57:38.769Z,13.43
2022-12-18T17:00:07.631Z,13.63
2022-12-18T17:02:35.268Z,14.30
2022-12-18T17:05:02.902Z,14.77
2022-12-18T17:07:30.503Z,14.23
2022-12-18T17:09:57.981Z,14.37
2022-12-18T17:12:26.678Z,14.97
2022-12-18T17:14:55.538Z,13.83
2022-12-18T17:17:23.757Z,14.73
2022-12-18T17:19:52.322Z,14.80
2022-12-18T17:22:20.324Z,15.07
2022-12-18T17:24:48.260Z,16.13
2022-12-18T17:27:15.919Z,13.70
2022-12-18T17:29:48.054Z,15.33
2022-12-18T17:32:18.163Z,12.50
2022-12-18T17:34:46.083Z,14.90
2022-12-18T17:37:13.639Z,15.00
2022-12-18T17:39:41.933Z,14.70
2022-12-18T17:42:15.159Z,15.17
2022-12-18T17:44:43.554Z,15.30
2022-12-18T17:47:12.062Z,14.80
2022-12-18T17:49:41.018Z,14.37
2022-12-18T17:52:08.530Z,14.80
2022-12-18T17:54:39.361Z,14.07
2022-12-18T17:57:06.851Z,15.40
2022-12-18T17:59:34.329Z,14.03
2022-12-18T18:02:01.916Z,14.07
2022-12-18T18:04:30.445Z,15.53
2022-12-18T18:06:59.278Z,13.50
2022-12-18T18:09:27.141Z,14.67
2022-12-18T18:12:12.315Z,15.63
2022-12-18T18:14:39.979Z,13.73
2022-12-18T18:17:07.841Z,13.83
2022-12-18T18:19:35.665Z,15.57
2022-12-18T18:22:04.552Z,14.80
2022-12-18T18:24:34.703Z,15.07
2022-12-18T18:27:02.160Z,15.97
2022-12-18T18:29:31.186Z,14.53
2022-12-18T18:31:59.329Z,15.10
2022-12-18T18:34:28.591Z,15.20
2022-12-18T18:36:56.344Z,15.60
2022-12-18T18:39:25.142Z,14.03
2022-12-18T18:41:53.019Z,13.50
2022-12-18T18:44:25.812Z,14.07
2022-12-18T18:46:54.899Z,15.67
2022-12-18T18:49:24.031Z,15.90
2022-12-18T18:51:51.764Z,15.23
2022-12-18T18:54:19.242Z,15.33
2022-12-18T18:59:37.134Z,15.17
2022-12-18T19:02:05.186Z,15.17
2022-12-18T19:04:34.095Z,15.13
2022-12-18T19:07:01.882Z,15.03
2022-12-18T19:09:29.602Z,14.87
2022-12-18T19:12:16.545Z,13.13
2022-12-18T19:14:44.291Z,15.53
2022-12-18T19:17:11.787Z,15.87
2022-12-18T19:19:39.632Z,14.73
2022-12-18T19:22:07.356Z,14.40
2022-12-18T19:24:34.844Z,14.20
2022-12-18T19:27:03.810Z,14.53
2022-12-18T19:29:31.303Z,15.50
2022-12-18T19:31:59.045Z,15.30
2022-12-18T19:34:27.425Z,15.27
2022-12-18T19:36:59.485Z,15.77
2022-12-18T19:39:27.698Z,14.70
2022-12-18T19:41:55.202Z,16.30
2022-12-18T19:44:24.045Z,15.87
2022-12-18T19:46:52.434Z,15.20
2022-12-18T19:49:22.897Z,15.63
2022-12-18T19:51:50.620Z,16.07
2022-12-18T19:54:18.374Z,14.93
2022-12-18T19:56:47.024Z,14.97
2022-12-18T19:59:14.918Z,16.47
2022-12-18T20:01:43.873Z,15.20
2022-12-18T20:04:11.552Z,15.23
2022-12-18T20:06:48.129Z,16.73
2022-12-18T20:09:15.700Z,16.10
2022-12-18T20:11:44.127Z,15.67
2022-12-18T20:14:12.980Z,16.00
2022-12-18T20:16:41.467Z,17.13
2022-12-18T20:19:11.613Z,16.03
2022-12-18T20:21:39.665Z,15.27
2022-12-18T20:24:08.629Z,16.10
2022-12-18T20:26:36.159Z,16.67
2022-12-18T20:29:03.748Z,16.23
2022-12-18T20:31:31.343Z,16.63
2022-12-18T20:34:01.715Z,15.77
2022-12-18T20:36:34.308Z,15.57
2022-12-18T20:39:05.293Z,16.03
2022-12-18T20:41:37.994Z,15.70
2022-12-18T20:44:07.490Z,16.67
2022-12-18T20:46:46.577Z,15.90
2022-12-18T20:49:14.125Z,15.63
2022-12-18T20:51:42.978Z,15.87
2022-12-18T20:54:11.878Z,14.97
2022-12-18T20:56:39.596Z,16.13
2022-12-18T20:59:07.217Z,15.80
2022-12-18T21:01:34.747Z,15.53
2022-12-18T21:04:03.663Z,15.33
2022-12-18T21:06:31.556Z,16.20
2022-12-18T21:09:00.344Z,16.03
2022-12-18T21:11:47.404Z,15.33
2022-12-18T21:14:16.962Z,15.43
2022-12-18T21:16:44.945Z,15.77
2022-12-18T21:19:13.170Z,16.30
2022-12-18T21:21:41.705Z,15.77
2022-12-18T21:24:10.849Z,16.20
2022-12-18T21:26:45.521Z,15.40
2022-12-18T21:29:15.616Z,15.73
2022-12-18T21:31:43.612Z,15.73
2022-12-18T21:34:16.346Z,15.47
2022-12-18T21:36:43.888Z,15.87
2022-12-18T21:39:12.983Z,15.03
2022-12-18T21:41:58.131Z,16.97
2022-12-18T21:44:25.659Z,16.17
2022-12-18T21:46:59.796Z,15.10
2022-12-18T21:49:29.125Z,16.17
2022-12-18T21:51:59.482Z,15.70
2022-12-18T21:54:29.904Z,16.27
2022-12-18T21:56:58.601Z,16.50
2022-12-18T21:59:28.234Z,14.97
2022-12-18T22:01:58.472Z,14.70
2022-12-18T22:04:26.795Z,15.83
2022-12-18T22:06:54.916Z,15.90
2022-12-18T22:09:24.961Z,15.53
2022-12-18T22:11:54.814Z,16.17
2022-12-18T22:14:23.158Z,16.87
2022-12-18T22:16:52.310Z,15.63
2022-12-18T22:19:21.092Z,15.43
2022-12-18T22:21:50.086Z,17.10
2022-12-18T22:24:19.564Z,17.13
2022-12-18T22:26:47.703Z,15.50
2022-12-18T22:29:36.021Z,14.57
2022-12-18T22:32:03.951Z,15.03
2022-12-18T22:34:36.297Z,15.97
2022-12-18T22:37:04.225Z,15.23
2022-12-18T22:39:32.298Z,16.07
2022-12-18T22:42:00.016Z,16.20
2022-12-18T22:44:29.245Z,15.27
2022-12-18T22:47:02.876Z,15.23
2022-12-18T22:49:35.529Z,15.10
2022-12-18T22:52:04.183Z,15.40
2022-12-18T22:54:31.682Z,16.60
2022-12-18T22:56:59.155Z,15.60
2022-12-18T22:59:27.711Z,16.03
2022-12-18T23:01:58.531Z,16.07
2022-12-18T23:04:28.495Z,15.27
2022-12-18T23:07:04.106Z,17.17
2022-12-18T23:09:31.596Z,16.73
2022-12-18T23:11:59.275Z,16.17
2022-12-18T23:14:26.787Z,16.33
2022-12-18T23:16:55.613Z,16.37
2022-12-18T23:19:23.816Z,16.33
2022-12-18T23:21:51.659Z,16.10
2022-12-18T23:24:19.468Z,16.07
2022-12-18T23:26:47.008Z,15.83
2022-12-18T23:29:14.438Z,15.77
2022-12-18T23:31:41.966Z,16.73
2022-12-18T23:34:13.002Z,15.60
2022-12-18T23:36:45.890Z,17.10
2022-12-18T23:39:29.018Z,15.50
2022-12-18T23:41:57.688Z,16.17
2022-12-18T23:44:25.659Z,16.90
2022-12-18T23:46:53.193Z,15.97
2022-12-18T23:49:22.107Z,15.10
2022-12-18T23:51:49.990Z,15.67
2022-12-18T23:54:17.500Z,16.47
2022-12-18T23:56:50.187Z,15.80
2022-12-18T23:59:20.295Z,15.77
